METAR Data
IDs: Format: Raw Decoded Include TAF

Data at: 0313 UTC 05 Jun 2020

KLRY 050255Z AUTO 17003KT 10SM CLR 26/22 A2983 RMK AO2
KLRY 050235Z AUTO 00000KT 10SM CLR 26/22 A2982 RMK AO2
KLRY 050215Z AUTO 00000KT 10SM CLR 26/22 A2981 RMK AO2
KLRY 050155Z AUTO 00000KT 10SM CLR 27/22 A2980 RMK AO2
KLRY 050135Z AUTO 17003KT 10SM CLR 27/22 A2980 RMK AO2
KLRY 050115Z AUTO 00000KT 10SM CLR 28/22 A2979 RMK AO2
KLRY 050055Z AUTO 00000KT 10SM CLR 29/22 A2979 RMK AO2
KLRY 050035Z AUTO 00000KT 10SM CLR 30/22 A2980 RMK AO2
KLRY 050015Z AUTO 18004KT 10SM CLR 30/22 A2979 RMK AO2
KLRY 042355Z AUTO 20005KT 10SM CLR 31/21 A2979 RMK AO2
KLRY 042335Z AUTO 19004KT 10SM CLR 31/22 A2980 RMK AO2
KLRY 042315Z AUTO 18003KT 10SM SCT036 31/22 A2980 RMK AO2
KLRY 042255Z AUTO 18006KT 10SM BKN036 31/21 A2980 RMK AO2
KLRY 042235Z AUTO 22005KT 10SM SCT037 32/21 A2981 RMK AO2
KLRY 042215Z AUTO 21005KT 10SM SCT037 32/21 A2981 RMK AO2
KLRY 042155Z AUTO 20004KT 10SM CLR 32/21 A2981 RMK AO2
KLRY 042135Z AUTO 22004KT 10SM CLR 32/21 A2981 RMK AO2
KLRY 042115Z AUTO 25003KT 10SM SCT037 32/21 A2981 RMK AO2
KLRY 042055Z AUTO 21004KT 10SM SCT035 SCT041 32/22 A2982 RMK AO2
KLRY 042035Z AUTO 00000KT 10SM BKN035 31/21 A2983 RMK AO2
KLRY 042015Z AUTO 26005KT 10SM SCT035 32/21 A2983 RMK AO2
KLRY 041955Z AUTO 27006KT 10SM CLR 31/20 A2983 RMK AO2
KLRY 041935Z AUTO 27004KT 10SM SCT032 31/21 A2983 RMK AO2
KLRY 041915Z AUTO 28005KT 10SM CLR 31/21 A2983 RMK AO2
KLRY 041855Z AUTO 27005KT 7SM SCT031 30/21 A2983 RMK AO2
KLRY 041835Z AUTO 26004KT 10SM CLR 30/21 A2984 RMK AO2
KLRY 041815Z AUTO 25006KT 10SM CLR 30/21 A2984 RMK AO2
KLRY 041755Z AUTO 22005KT 10SM CLR 29/20 A2984 RMK AO2
KLRY 041735Z AUTO 24006KT 10SM CLR 28/20 A2985 RMK AO2
KLRY 041715Z AUTO 27005KT 10SM CLR 28/20 A2985 RMK AO2
KLRY 041655Z AUTO 26006KT 10SM CLR 27/19 A2985 RMK AO2
KLRY 041635Z AUTO 24007KT 10SM CLR 27/20 A2986 RMK AO2
KLRY 041615Z AUTO 25005KT 10SM CLR 26/19 A2986 RMK AO2
KLRY 041555Z AUTO 24007KT 10SM CLR 25/19 A2986 RMK AO2
KLRY 041535Z AUTO 24006KT 10SM CLR 25/19 A2986 RMK AO2
KLRY 041515Z AUTO 25006KT 10SM SCT014 23/19 A2986 RMK AO2
KLRY 041455Z AUTO 22005KT 10SM CLR 23/18 A2987 RMK AO2
KLRY 041435Z AUTO 21004KT 10SM SCT010 22/18 A2986 RMK AO2
KLRY 041415Z AUTO 20003KT 10SM BKN010 22/18 A2986 RMK AO2
KLRY 041355Z AUTO 17003KT 10SM BKN008 21/18 A2987 RMK AO2
KLRY 041335Z AUTO 16004KT 10SM SCT006 21/18 A2987 RMK AO2
KLRY 041315Z AUTO 15004KT 10SM SCT006 20/18 A2987 RMK AO2 LTG DSNT S
KLRY 041255Z AUTO 00000KT 10SM CLR 20/18 A2987 RMK AO2 LTG DSNT S
KLRY 041235Z AUTO 20003KT 10SM CLR 18/18 A2987 RMK AO2
KLRY 041215Z AUTO 21004KT 10SM CLR 18/17 A2987 RMK AO2 LTG DSNT S
KLRY 041155Z AUTO 15003KT 10SM CLR 18/17 A2987 RMK AO2
KLRY 041135Z AUTO 12003KT 10SM CLR 18/17 A2986 RMK AO2 LTG DSNT E
KLRY 041115Z AUTO 10004KT 10SM CLR 18/17 A2986 RMK AO2 LTG DSNT S AND SW
KLRY 041055Z AUTO 13005KT 10SM CLR 18/17 A2987 RMK AO2 P0003 LTG DSNT SW AND W
KLRY 041035Z AUTO 14007KT 10SM -RA SCT100 SCT120 18/17 A2986 RMK AO2 P0003
KLRY 041015Z AUTO 15010G15KT 10SM -RA SCT009 SCT028 BKN110 18/17 A2988 RMK AO2 P0002 LTG DSNT SE
KLRY 040955Z AUTO 15014KT 5SM RA OVC110 18/17 A2987 RMK AO2 P0019 LTG DSNT SE AND S
KLRY 040935Z AUTO 13009KT 5SM VCTSRA SCT080 OVC110 18/17 A2990 RMK AO2 P0013 LTG DSNT SE THRU NW
KLRY 040915Z AUTO 10006KT 5SM TSRA BKN100 OVC120 18/17 A2992 RMK AO2 P0007 LTG DSNT NE THRU S
KLRY 040855Z AUTO 10010KT 7SM -VCTSRA SCT007 SCT037 OVC110 18/17 A2993 RMK AO2 P0080 LTG DSNT ALQS
KLRY 040835Z AUTO 07009KT 3SM +TSRA SCT027 BKN036 OVC065 19/18 A2993 RMK AO2 P0072 LTG DSNT ALQS
KLRY 040815Z AUTO 04011KT 1 3/4SM +TSRA SCT005 BKN011 OVC027 19/18 A2991 RMK AO2 P0063 LTG DSNT ALQS
KLRY 040755Z AUTO 01025G37KT 1 1/4SM +TSRA SCT006 BKN024 OVC060 21/18 A2993 RMK AO2 P0016 LTG DSNT ALQS
KLRY 040735Z AUTO 13010KT 10SM BKN060 OVC070 25/20 A2979 RMK AO2 LTG DSNT ALQS
KLRY 040715Z AUTO 12006KT 10SM SCT070 25/21 A2981 RMK AO2 LTG DSNT ALQS
KLRY 040655Z AUTO 16004KT 10SM CLR 24/21 A2980 RMK AO2 LTG DSNT N AND NE
KLRY 040635Z AUTO 16003KT 10SM CLR 25/21 A2980 RMK AO2 LTG DSNT W THRU E
KLRY 040615Z AUTO 17003KT 10SM CLR 25/21 A2981 RMK AO2 LTG DSNT NW THRU E
KLRY 040555Z AUTO 17003KT 10SM SCT050 SCT065 26/21 A2982 RMK AO2 LTG DSNT NW THRU E
KLRY 040535Z AUTO 15003KT 10SM BKN050 25/21 A2982 RMK AO2 LTG DSNT NE AND E
KLRY 040515Z AUTO 17003KT 10SM CLR 26/21 A2982 RMK AO2 LTG DSNT NE AND E
KLRY 040455Z AUTO 21003KT 10SM CLR 26/21 A2982 RMK AO2 LTG DSNT NE AND NW
KLRY 040435Z AUTO 21005KT 10SM CLR 26/21 A2981 RMK AO2
KLRY 040415Z AUTO 21004KT 10SM CLR 26/21 A2981 RMK AO2
KLRY 040355Z AUTO 22004KT 10SM CLR 27/21 A2982 RMK AO2 LTG DSNT NE
KLRY 040335Z AUTO 22003KT 10SM CLR 27/21 A2982 RMK AO2 LTG DSNT NE
KLRY 040315Z AUTO 23005KT 10SM CLR 28/21 A2982 RMK AO2
KLRY 040255Z AUTO 22005KT 10SM CLR 28/21 A2981 RMK AO2 LTG DSNT E
KLRY 040235Z AUTO 22007KT 10SM CLR 28/21 A2980 RMK AO2
KLRY 040215Z AUTO 22006KT 10SM CLR 28/21 A2980 RMK AO2 LTG DSNT NE AND E
KLRY 040155Z AUTO 24005KT 10SM SCT060 28/21 A2981 RMK AO2
KLRY 040135Z AUTO 20005KT 10SM BKN060 30/21 A2981 RMK AO2
KLRY 040115Z AUTO 20005KT 10SM SCT060 30/21 A2981 RMK AO2 LTG DSNT E
KLRY 040055Z AUTO 19005KT 10SM CLR 31/22 A2981 RMK AO2
KLRY 040035Z AUTO 20005KT 10SM SCT060 31/21 A2981 RMK AO2
KLRY 040015Z AUTO 23004KT 10SM SCT060 31/21 A2981 RMK AO2
KLRY 032355Z AUTO 24006KT 10SM CLR 32/21 A2981 RMK AO2
KLRY 032335Z AUTO 21008KT 10SM CLR 33/21 A2981 RMK AO2
KLRY 032315Z AUTO 25006KT 10SM CLR 33/21 A2981 RMK AO2
KLRY 032255Z AUTO 23008KT 10SM CLR 33/21 A2982 RMK AO2
KLRY 032235Z AUTO 22008KT 10SM CLR 33/21 A2982 RMK AO2
KLRY 032215Z AUTO 24008G15KT 10SM CLR 33/21 A2982 RMK AO2
KLRY 032155Z AUTO 24009G14KT 10SM CLR 33/21 A2983 RMK AO2
KLRY 032135Z AUTO 23007G14KT 10SM SCT048 SCT055 SCT080 33/21 A2983 RMK AO2
KLRY 032115Z AUTO 24007KT 10SM SCT050 33/21 A2983 RMK AO2
KLRY 032055Z AUTO 25007KT 10SM SCT048 SCT065 SCT080 34/21 A2984 RMK AO2 LTG DSNT W
KLRY 032035Z AUTO 26007KT 10SM SCT046 SCT065 BKN100 34/22 A2985 RMK AO2
KLRY 032015Z AUTO 26008KT 216V276 10SM BKN046 BKN070 BKN110 33/21 A2986 RMK AO2
KLRY 031955Z AUTO 27005KT 10SM BKN046 BKN070 33/21 A2987 RMK AO2
KLRY 031935Z AUTO 23009G15KT 10SM SCT044 SCT050 BKN070 33/21 A2987 RMK AO2
KLRY 031915Z AUTO 21007KT 10SM SCT042 33/21 A2988 RMK AO2
KLRY 031855Z AUTO 26003KT 10SM CLR 33/21 A2988 RMK AO2
KLRY 031835Z AUTO 23010G14KT 10SM CLR 33/21 A2989 RMK AO2
KLRY 031815Z AUTO 24008KT 10SM CLR 32/21 A2989 RMK AO2
KLRY 031755Z AUTO 23010KT 10SM CLR 32/21 A2989 RMK AO2
KLRY 031735Z AUTO 24008G14KT 10SM CLR 32/21 A2990 RMK AO2
KLRY 031715Z AUTO 25007KT 10SM CLR 32/21 A2990 RMK AO2
KLRY 031655Z AUTO 23009KT 10SM CLR 31/21 A2991 RMK AO2
KLRY 031635Z AUTO 26010G15KT 7SM CLR 31/21 A2992 RMK AO2 LTG DSNT W
KLRY 031615Z AUTO 25010KT 10SM CLR 30/21 A2993 RMK AO2
KLRY 031555Z AUTO 26008G18KT 10SM CLR 30/21 A2992 RMK AO2
KLRY 031535Z AUTO 25011G15KT 10SM CLR 29/21 A2993 RMK AO2
KLRY 031515Z AUTO 24010G15KT 10SM SCT080 28/21 A2994 RMK AO2